Time;durP1;ratioP1;P1;durP2;ratioP2;P2;SDS_P1;SDS_P2;PMS_P1;PMS_P2;Temp;Humidity;BMP_temperature;BMP_pressure;BME280_temperature;BME280_humidity;BME280_pressure;Samples;Min_cycle;Max_cycle;Signal;HPM_P1;HPM_P2
2023/12/22 00:01:11;;;;;;;21.90;4.35;;;8.00;99.90;;;;;;5134804;27;20078;-71
2023/12/22 00:03:37;;;;;;;17.65;3.75;;;7.80;99.90;;;;;;5132972;27;20452;-71
2023/12/22 00:06:03;;;;;;;13.70;3.20;;;7.70;99.90;;;;;;5123223;27;20027;-71
2023/12/22 00:08:28;;;;;;;26.13;4.55;;;7.60;99.90;;;;;;5134525;27;20036;-71
2023/12/22 00:10:54;;;;;;;18.83;3.55;;;7.50;99.90;;;;;;5133738;27;20028;-71
2023/12/22 00:13:19;;;;;;;22.02;4.60;;;7.40;99.90;;;;;;5135059;27;20023;-71
2023/12/22 00:15:45;;;;;;;19.55;4.60;;;7.30;99.90;;;;;;5135057;27;20038;-71
2023/12/22 00:18:10;;;;;;;20.35;4.47;;;7.30;99.90;;;;;;5132208;27;20031;-71
2023/12/22 00:20:36;;;;;;;27.42;4.90;;;7.20;99.90;;;;;;5134267;27;20027;-71
2023/12/22 00:23:02;;;;;;;25.90;4.97;;;7.20;99.90;;;;;;5131121;27;20377;-71
2023/12/22 00:25:27;;;;;;;26.30;5.57;;;7.20;99.90;;;;;;5132595;27;20388;-70
2023/12/22 00:27:53;;;;;;;25.65;5.53;;;7.30;99.90;;;;;;5129631;27;20016;-71
2023/12/22 00:30:18;;;;;;;28.35;5.28;;;7.30;99.90;;;;;;5134461;27;20118;-71
2023/12/22 00:32:45;;;;;;;24.90;4.70;;;7.30;99.90;;;;;;5133872;27;20027;-71
2023/12/22 00:35:10;;;;;;;22.40;4.18;;;7.40;99.90;;;;;;5134324;27;20535;-71
2023/12/22 00:37:36;;;;;;;15.55;4.05;;;7.40;99.90;;;;;;5134352;27;20098;-71
2023/12/22 00:40:07;;;;;;;26.08;4.40;;;7.40;99.90;;;;;;5122291;27;20020;-71
2023/12/22 00:42:32;;;;;;;19.98;4.53;;;7.40;99.90;;;;;;5130708;27;20110;-71
2023/12/22 00:44:58;;;;;;;25.20;4.57;;;7.40;99.90;;;;;;5132868;27;20106;-71
2023/12/22 00:47:23;;;;;;;17.52;4.05;;;7.40;99.90;;;;;;5134386;27;20110;-71
2023/12/22 00:49:49;;;;;;;21.50;4.45;;;7.30;99.90;;;;;;5133345;27;20043;-71
2023/12/22 00:52:14;;;;;;;25.52;5.43;;;7.30;99.90;;;;;;5133814;27;20023;-71
2023/12/22 00:54:40;;;;;;;24.33;4.82;;;7.40;99.90;;;;;;5134042;27;20113;-71
2023/12/22 00:57:06;;;;;;;23.52;4.80;;;7.30;99.90;;;;;;5134309;27;20027;-71
2023/12/22 00:59:31;;;;;;;28.50;5.53;;;7.40;99.90;;;;;;5134023;27;20043;-71
2023/12/22 01:01:57;;;;;;;26.48;5.13;;;7.40;99.90;;;;;;5133538;27;20111;-71
2023/12/22 01:04:23;;;;;;;34.38;5.50;;;7.40;99.90;;;;;;5132826;27;20027;-71
2023/12/22 01:06:48;;;;;;;24.10;5.47;;;7.50;99.90;;;;;;5132211;27;20068;-71
2023/12/22 01:09:14;;;;;;;27.05;5.88;;;7.50;99.90;;;;;;5115122;27;20035;-71
2023/12/22 01:11:40;;;;;;;24.80;5.90;;;7.40;99.90;;;;;;5132222;27;20550;-71
2023/12/22 01:14:07;;;;;;;28.90;6.47;;;7.30;99.90;;;;;;5133897;27;20123;-71
2023/12/22 01:16:32;;;;;;;35.55;7.28;;;7.30;99.90;;;;;;5133793;27;20030;-71
2023/12/22 01:18:58;;;;;;;32.70;6.93;;;7.30;99.90;;;;;;5133827;27;20023;-71
2023/12/22 01:21:24;;;;;;;36.97;7.53;;;7.30;99.90;;;;;;5133510;27;20475;-71
2023/12/22 01:23:49;;;;;;;28.92;7.00;;;7.30;99.90;;;;;;5133603;27;20027;-71
2023/12/22 01:26:15;;;;;;;38.00;7.50;;;7.30;99.90;;;;;;5133568;27;20064;-71
2023/12/22 01:28:40;;;;;;;31.65;6.55;;;7.40;99.90;;;;;;5133462;27;20027;-71
2023/12/22 01:31:06;;;;;;;33.60;6.05;;;7.40;99.90;;;;;;5131725;27;20398;-71
2023/12/22 01:33:31;;;;;;;39.55;7.95;;;7.40;99.90;;;;;;5130612;27;20034;-70
2023/12/22 01:35:57;;;;;;;34.25;6.90;;;7.40;99.90;;;;;;5133540;27;20463;-71
2023/12/22 01:38:22;;;;;;;38.30;6.75;;;7.50;99.90;;;;;;5133204;27;20497;-71
2023/12/22 01:40:48;;;;;;;32.47;6.38;;;7.50;99.90;;;;;;5133455;27;20048;-71
2023/12/22 01:43:14;;;;;;;34.03;6.57;;;7.50;99.90;;;;;;5132359;27;20422;-71
2023/12/22 01:45:43;;;;;;;36.63;6.82;;;7.60;99.90;;;;;;5122917;27;20076;-71
2023/12/22 01:48:09;;;;;;;31.50;6.03;;;7.60;99.90;;;;;;5131021;27;20045;-71
2023/12/22 01:50:36;;;;;;;30.63;6.65;;;7.60;99.90;;;;;;5132157;27;20043;-71
2023/12/22 01:53:03;;;;;;;29.17;6.07;;;7.60;99.90;;;;;;5131863;27;20022;-70
2023/12/22 01:55:29;;;;;;;33.13;7.25;;;7.60;99.90;;;;;;5131630;27;20464;-71
2023/12/22 01:57:56;;;;;;;33.65;6.40;;;7.70;99.90;;;;;;5130691;28;20047;-71
2023/12/22 02:00:21;;;;;;;34.55;6.30;;;7.70;99.90;;;;;;5130608;27;20487;-71
2023/12/22 02:02:48;;;;;;;35.22;6.03;;;7.80;99.90;;;;;;5124163;28;20066;-71
2023/12/22 02:05:13;;;;;;;25.00;5.30;;;7.90;99.90;;;;;;5111616;28;20422;-71
2023/12/22 02:07:41;;;;;;;33.67;6.15;;;7.90;99.90;;;;;;5124624;28;20027;-71
2023/12/22 02:10:10;;;;;;;26.98;6.13;;;8.00;99.90;;;;;;5129699;28;20088;-71
2023/12/22 02:12:37;;;;;;;27.60;5.85;;;8.10;99.90;;;;;;5132163;28;20034;-71
2023/12/22 02:15:05;;;;;;;28.75;5.38;;;8.10;99.90;;;;;;5132099;28;20011;-71
2023/12/22 02:17:44;;;;;;;29.30;5.57;;;8.10;99.90;;;;;;5133350;28;20032;-71
2023/12/22 02:20:10;;;;;;;23.60;5.15;;;8.20;99.90;;;;;;5129062;27;20482;-71
2023/12/22 02:22:36;;;;;;;32.00;5.95;;;8.20;99.90;;;;;;5132697;28;20073;-71
2023/12/22 02:25:02;;;;;;;22.55;5.32;;;8.20;99.90;;;;;;5129227;28;20055;-71
2023/12/22 02:27:56;;;;;;;29.40;6.47;;;8.20;99.90;;;;;;5132501;28;20632;-71
2023/12/22 02:30:58;;;;;;;31.08;6.18;;;8.30;99.90;;;;;;5115586;28;20035;-71
2023/12/22 02:33:24;;;;;;;;;;;8.40;99.90;;;;;;5133054;28;20046;-71
2023/12/22 02:35:51;;;;;;;31.42;5.90;;;8.40;99.90;;;;;;5132714;28;19915;-71
2023/12/22 02:38:19;;;;;;;26.85;6.15;;;8.40;99.90;;;;;;5132603;28;20468;-71
2023/12/22 02:40:45;;;;;;;23.20;5.00;;;8.50;99.90;;;;;;5132720;28;20031;-71
2023/12/22 02:43:11;;;;;;;28.75;5.47;;;8.50;99.90;;;;;;5132639;28;20031;-71
2023/12/22 02:45:36;;;;;;;28.77;5.38;;;8.50;99.90;;;;;;5130876;28;20174;-71
2023/12/22 02:48:02;;;;;;;31.08;6.25;;;8.60;99.90;;;;;;5132389;28;20572;-71
2023/12/22 02:50:28;;;;;;;31.13;5.70;;;8.60;99.90;;;;;;5130726;28;20023;-71
2023/12/22 02:52:53;;;;;;;29.17;5.65;;;8.60;99.90;;;;;;5132439;28;20059;-71
2023/12/22 02:55:19;;;;;;;22.20;4.97;;;8.60;99.90;;;;;;5130963;28;20031;-71
2023/12/22 02:57:45;;;;;;;29.63;5.28;;;8.60;99.90;;;;;;5132346;28;20372;-72
2023/12/22 03:00:11;;;;;;;33.63;6.50;;;8.60;99.90;;;;;;5133067;28;20023;-72
2023/12/22 03:02:37;;;;;;;31.88;5.47;;;8.60;99.90;;;;;;5127526;28;20043;-72
2023/12/22 03:05:04;;;;;;;27.30;6.25;;;8.70;99.90;;;;;;5128298;28;20027;-72
2023/12/22 03:07:30;;;;;;;26.70;5.32;;;8.70;99.90;;;;;;5132499;28;20491;-72
2023/12/22 03:09:55;;;;;;;30.48;6.45;;;8.80;99.90;;;;;;5132572;28;20039;-71
2023/12/22 03:12:21;;;;;;;28.05;5.82;;;8.90;99.90;;;;;;5134139;27;20398;-71
2023/12/22 03:14:46;;;;;;;28.60;5.80;;;8.90;99.90;;;;;;5136000;27;20782;-72
2023/12/22 03:17:12;;;;;;;25.23;4.57;;;9.00;99.90;;;;;;5134669;27;20048;-72
2023/12/22 03:19:39;;;;;;;31.42;5.15;;;9.10;99.90;;;;;;5136117;27;20023;-71
2023/12/22 03:22:04;;;;;;;23.98;4.85;;;9.10;99.90;;;;;;5134470;27;20052;-71
2023/12/22 03:24:30;;;;;;;28.75;5.82;;;9.20;99.90;;;;;;5135630;27;20411;-71
2023/12/22 03:26:55;;;;;;;25.00;4.75;;;9.20;99.90;;;;;;5135872;27;20023;-72
2023/12/22 03:29:21;;;;;;;26.77;5.35;;;9.30;99.90;;;;;;5135534;27;20042;-71
2023/12/22 03:31:47;;;;;;;25.35;4.35;;;9.30;99.90;;;;;;5135702;27;20110;-72
2023/12/22 03:34:13;;;;;;;24.17;5.00;;;9.40;99.90;;;;;;5134287;27;20114;-72
2023/12/22 03:36:39;;;;;;;20.55;4.85;;;9.40;99.90;;;;;;5131715;27;20033;-72
2023/12/22 03:39:05;;;;;;;26.55;4.80;;;9.40;99.90;;;;;;5135028;27;20027;-72
2023/12/22 03:41:31;;;;;;;35.95;5.38;;;9.40;99.90;;;;;;5135801;27;20034;-71
2023/12/22 03:43:56;;;;;;;24.75;4.93;;;9.40;99.90;;;;;;5135614;27;20023;-71
2023/12/22 03:46:23;;;;;;;30.88;5.15;;;9.40;99.90;;;;;;5133762;27;20027;-72
2023/12/22 03:48:49;;;;;;;26.33;6.10;;;9.40;99.90;;;;;;5135087;27;20537;-72
2023/12/22 03:51:14;;;;;;;26.73;5.45;;;9.40;99.90;;;;;;5135272;27;20108;-72
2023/12/22 03:53:41;;;;;;;26.77;4.78;;;9.30;99.90;;;;;;5135137;27;20459;-72
2023/12/22 03:56:08;;;;;;;27.05;5.72;;;9.40;99.90;;;;;;5135580;27;20030;-72
2023/12/22 03:58:34;;;;;;;22.70;5.28;;;9.40;99.90;;;;;;5134901;27;20067;-72
2023/12/22 04:01:00;;;;;;;28.52;5.13;;;9.40;99.90;;;;;;5134835;27;20055;-72
2023/12/22 04:03:26;;;;;;;30.73;5.88;;;9.40;99.90;;;;;;5115399;27;20114;-71
2023/12/22 04:05:51;;;;;;;25.13;4.85;;;9.40;99.90;;;;;;5121173;27;20023;-72
2023/12/22 04:08:17;;;;;;;26.20;5.63;;;9.50;99.90;;;;;;5135205;27;20372;-72
2023/12/22 04:10:44;;;;;;;25.50;4.80;;;9.50;99.90;;;;;;5135094;27;20428;-72
2023/12/22 04:13:10;;;;;;;28.60;5.57;;;9.50;99.90;;;;;;5135140;27;20027;-72
2023/12/22 04:15:35;;;;;;;24.60;4.93;;;9.50;99.90;;;;;;5134510;27;20353;-72
2023/12/22 04:18:01;;;;;;;31.38;5.18;;;9.50;99.90;;;;;;5128671;27;20039;-72
2023/12/22 04:20:27;;;;;;;32.97;6.60;;;9.60;99.90;;;;;;5133281;27;20027;-72
2023/12/22 04:22:52;;;;;;;27.25;5.45;;;9.60;99.90;;;;;;5134774;27;20019;-72
2023/12/22 04:25:18;;;;;;;25.33;5.15;;;9.60;99.90;;;;;;5134858;27;20037;-72
2023/12/22 04:27:44;;;;;;;25.55;4.38;;;9.60;99.90;;;;;;5134674;27;20030;-73
2023/12/22 04:30:10;;;;;;;26.65;5.57;;;9.60;99.90;;;;;;5124417;27;20070;-71
2023/12/22 04:32:36;;;;;;;29.65;5.50;;;9.60;99.90;;;;;;5134240;27;20057;-71
2023/12/22 04:35:01;;;;;;;27.48;5.85;;;9.70;99.90;;;;;;5134499;27;20027;-71
2023/12/22 04:37:27;;;;;;;24.95;5.43;;;9.70;99.90;;;;;;5134532;27;20023;-71
2023/12/22 04:39:52;;;;;;;20.65;4.60;;;9.60;99.90;;;;;;5133070;27;20076;-71
2023/12/22 04:42:19;;;;;;;19.75;3.97;;;9.70;99.90;;;;;;5134689;27;20400;-71
2023/12/22 04:44:45;;;;;;;21.60;4.90;;;9.60;99.90;;;;;;5133959;27;20027;-71
2023/12/22 04:47:12;;;;;;;26.73;4.88;;;9.60;99.90;;;;;;5132617;27;20034;-71
2023/12/22 04:49:38;;;;;;;25.88;5.00;;;9.60;99.90;;;;;;5134118;27;20039;-71
2023/12/22 04:52:03;;;;;;;24.80;5.13;;;9.60;99.90;;;;;;5133933;27;20029;-71
2023/12/22 04:54:29;;;;;;;25.38;4.78;;;9.60;99.90;;;;;;5133985;27;20487;-71
2023/12/22 04:56:54;;;;;;;28.77;6.00;;;9.60;99.90;;;;;;5133804;27;20030;-71
2023/12/22 04:59:20;;;;;;;27.48;4.95;;;9.60;99.90;;;;;;5132458;27;20043;-71
2023/12/22 05:01:54;;;;;;;25.33;4.70;;;9.60;99.90;;;;;;5132269;27;20038;-72
2023/12/22 05:04:20;;;;;;;22.80;4.63;;;9.50;99.90;;;;;;5115780;27;20449;-71
2023/12/22 05:06:45;;;;;;;24.20;4.80;;;9.50;99.90;;;;;;5115716;27;20019;-72
2023/12/22 05:09:12;;;;;;;27.10;5.80;;;9.50;99.90;;;;;;5133713;27;20035;-72
2023/12/22 05:11:37;;;;;;;22.73;4.63;;;9.50;99.90;;;;;;5134094;27;20092;-72
2023/12/22 05:14:03;;;;;;;25.20;5.43;;;9.50;99.90;;;;;;5133390;27;20023;-72
2023/12/22 05:16:31;;;;;;;24.48;5.15;;;9.50;99.90;;;;;;5133618;27;20062;-72
2023/12/22 05:18:59;;;;;;;25.20;5.38;;;9.50;99.90;;;;;;5125119;27;20035;-72
2023/12/22 05:21:25;;;;;;;27.15;4.95;;;9.50;99.90;;;;;;5128109;27;20035;-72
2023/12/22 05:23:50;;;;;;;27.30;5.60;;;9.50;99.90;;;;;;5133842;27;20037;-72
2023/12/22 05:26:25;;;;;;;29.25;4.80;;;9.50;99.90;;;;;;5133734;27;20094;-73
2023/12/22 05:28:51;;;;;;;23.95;4.93;;;9.50;99.90;;;;;;5131315;27;20043;-72
2023/12/22 05:31:17;;;;;;;23.15;4.90;;;9.50;99.90;;;;;;5124704;27;20043;-72
2023/12/22 05:33:43;;;;;;;28.27;5.15;;;9.50;99.90;;;;;;5132078;27;20035;-72
2023/12/22 05:36:08;;;;;;;26.52;4.97;;;9.60;99.90;;;;;;5131867;27;20023;-71
2023/12/22 05:38:38;;;;;;;23.35;4.95;;;9.60;99.90;;;;;;5133895;27;20044;-72
2023/12/22 05:41:05;;;;;;;28.45;6.47;;;9.60;99.90;;;;;;5133730;27;20039;-71
2023/12/22 05:43:30;;;;;;;23.58;5.45;;;9.60;99.90;;;;;;5133403;27;20376;-72
2023/12/22 05:45:56;;;;;;;23.13;4.60;;;9.60;99.90;;;;;;5133364;27;20019;-72
2023/12/22 05:48:22;;;;;;;23.73;5.93;;;9.60;99.90;;;;;;5131579;27;20039;-71
2023/12/22 05:50:48;;;;;;;28.42;6.65;;;9.60;99.90;;;;;;5133195;27;20068;-72
2023/12/22 05:53:13;;;;;;;25.83;5.43;;;9.70;99.90;;;;;;5133407;27;20035;-72
2023/12/22 05:55:39;;;;;;;28.52;5.63;;;9.70;99.90;;;;;;5133042;27;20126;-72
2023/12/22 05:58:05;;;;;;;28.75;5.70;;;9.70;99.90;;;;;;5133031;27;20043;-72
2023/12/22 06:00:30;;;;;;;28.90;5.93;;;9.70;99.90;;;;;;5120435;28;20065;-71
2023/12/22 06:02:56;;;;;;;30.80;6.63;;;9.80;99.90;;;;;;5130721;28;20027;-72
2023/12/22 06:05:22;;;;;;;31.63;6.32;;;9.80;99.90;;;;;;5133275;28;20035;-73
2023/12/22 06:07:47;;;;;;;30.98;7.53;;;9.80;99.90;;;;;;5133154;28;20068;-71
2023/12/22 06:10:13;;;;;;;30.75;5.72;;;9.90;99.90;;;;;;5132702;28;20173;-71
2023/12/22 06:12:38;;;;;;;33.38;6.45;;;9.80;99.90;;;;;;5133134;28;20023;-71
2023/12/22 06:15:04;;;;;;;31.65;6.47;;;9.90;99.90;;;;;;5133054;28;20019;-71
2023/12/22 06:17:30;;;;;;;35.17;6.85;;;9.90;99.90;;;;;;5132254;28;20039;-71
2023/12/22 06:19:55;;;;;;;27.38;6.85;;;9.90;99.90;;;;;;5131804;28;20050;-71
2023/12/22 06:22:22;;;;;;;30.88;7.63;;;9.90;99.90;;;;;;5133202;28;20046;-71
2023/12/22 06:24:48;;;;;;;35.13;7.00;;;9.90;99.90;;;;;;5132753;28;20107;-72
2023/12/22 06:27:14;;;;;;;33.28;7.13;;;9.90;99.90;;;;;;5132726;28;20103;-71
2023/12/22 06:29:39;;;;;;;30.02;6.53;;;10.00;99.90;;;;;;5120699;28;20050;-73
2023/12/22 06:32:06;;;;;;;35.60;6.63;;;9.90;99.90;;;;;;5125677;28;20031;-72
2023/12/22 06:34:31;;;;;;;34.13;6.97;;;10.00;99.90;;;;;;5132830;28;20111;-71
2023/12/22 06:36:57;;;;;;;34.33;7.28;;;10.00;99.90;;;;;;5131923;28;20114;-71
2023/12/22 06:39:23;;;;;;;39.03;7.80;;;10.00;99.90;;;;;;5132871;28;20068;-71
2023/12/22 06:41:48;;;;;;;31.23;6.95;;;10.00;99.90;;;;;;5132934;28;20027;-75
2023/12/22 06:44:14;;;;;;;35.97;7.40;;;10.00;99.90;;;;;;5133025;28;20047;-72
2023/12/22 06:46:39;;;;;;;32.75;7.25;;;10.00;99.90;;;;;;5133337;27;20463;-72
2023/12/22 06:49:05;;;;;;;39.15;7.07;;;10.00;99.90;;;;;;5134877;27;20127;-71
2023/12/22 06:51:33;;;;;;;31.83;7.15;;;10.00;99.90;;;;;;5136975;27;20028;-71
2023/12/22 06:54:01;;;;;;;30.10;7.10;;;10.00;99.90;;;;;;5136599;27;20027;-72
2023/12/22 06:56:28;;;;;;;38.03;8.32;;;10.00;99.90;;;;;;5136618;27;20023;-71
2023/12/22 06:59:01;;;;;;;32.53;7.93;;;10.00;99.90;;;;;;5127196;27;20047;-71
2023/12/22 07:01:36;;;;;;;38.88;8.55;;;10.10;99.90;;;;;;5130282;27;20106;-72
2023/12/22 07:04:03;;;;;;;40.20;8.75;;;10.10;99.90;;;;;;5134557;27;21378;-71
2023/12/22 07:06:30;;;;;;;41.60;9.43;;;10.10;99.90;;;;;;5136111;27;20027;-72
2023/12/22 07:09:11;;;;;;;30.98;7.75;;;10.10;99.90;;;;;;5136193;27;20078;-71
2023/12/22 07:11:55;;;;;;;45.08;10.13;;;10.00;99.90;;;;;;5136117;27;20023;-71
2023/12/22 07:14:21;;;;;;;40.17;8.90;;;9.90;99.90;;;;;;5128142;27;20121;-71
2023/12/22 07:16:47;;;;;;;44.17;9.65;;;9.90;99.90;;;;;;5135305;27;20109;-71
2023/12/22 07:19:13;;;;;;;40.28;9.20;;;9.90;99.90;;;;;;5127634;27;20031;-71
2023/12/22 07:21:39;;;;;;;49.17;9.82;;;9.90;99.90;;;;;;5131263;27;20027;-71
2023/12/22 07:24:05;;;;;;;35.38;9.85;;;9.90;99.90;;;;;;5133479;27;20023;-71
2023/12/22 07:26:31;;;;;;;38.35;8.70;;;9.80;99.90;;;;;;5135031;27;20031;-71
2023/12/22 07:28:56;;;;;;;36.92;8.25;;;9.80;99.90;;;;;;5134061;27;20392;-71
2023/12/22 07:31:22;;;;;;;34.72;7.82;;;9.90;99.90;;;;;;5133791;27;20479;-72
2023/12/22 07:33:48;;;;;;;40.55;8.70;;;9.90;99.90;;;;;;5130847;27;20486;-71
2023/12/22 07:36:14;;;;;;;35.65;8.57;;;9.90;99.90;;;;;;5130199;27;20388;-72
2023/12/22 07:38:39;;;;;;;33.47;7.30;;;9.90;99.90;;;;;;5130416;27;20039;-72
2023/12/22 07:41:05;;;;;;;39.30;8.55;;;9.90;99.90;;;;;;5128841;27;20045;-72
2023/12/22 07:43:31;;;;;;;39.60;8.07;;;9.90;99.90;;;;;;5135232;27;20027;-71
2023/12/22 07:45:57;;;;;;;33.42;7.00;;;9.90;99.90;;;;;;5129898;27;20024;-72
2023/12/22 07:48:23;;;;;;;34.30;7.28;;;9.80;99.90;;;;;;5127309;27;20087;-71
2023/12/22 07:50:49;;;;;;;32.60;7.65;;;9.80;99.90;;;;;;5133457;27;20035;-71
2023/12/22 07:53:15;;;;;;;36.20;7.93;;;9.80;99.90;;;;;;5133640;27;20026;-71
2023/12/22 07:55:40;;;;;;;43.85;8.20;;;9.70;99.90;;;;;;5135387;27;20114;-71
2023/12/22 07:58:07;;;;;;;44.70;9.77;;;9.70;99.90;;;;;;5134498;27;20051;-71
2023/12/22 08:00:32;;;;;;;43.97;9.45;;;9.60;99.90;;;;;;5130940;27;20024;-71
2023/12/22 08:02:58;;;;;;;47.42;9.88;;;9.60;99.90;;;;;;5125163;27;20030;-71
2023/12/22 08:05:23;;;;;;;48.95;10.07;;;9.60;99.90;;;;;;5133462;27;20088;-71
2023/12/22 08:07:49;;;;;;;42.88;8.35;;;9.50;99.90;;;;;;5133453;27;20076;-71
2023/12/22 08:10:16;;;;;;;43.13;8.40;;;9.50;99.90;;;;;;5135147;27;20023;-71
2023/12/22 08:12:42;;;;;;;36.85;7.68;;;9.50;99.90;;;;;;5135098;27;20032;-70
2023/12/22 08:15:10;;;;;;;37.95;7.22;;;9.50;99.90;;;;;;5128262;27;20032;-71
2023/12/22 08:17:36;;;;;;;45.22;8.02;;;9.60;99.90;;;;;;5130733;27;20027;-71
2023/12/22 08:20:03;;;;;;;37.22;8.15;;;9.50;99.90;;;;;;5134593;27;20031;-71
2023/12/22 08:22:28;;;;;;;31.98;7.68;;;9.60;99.90;;;;;;5132916;27;20028;-71
2023/12/22 08:24:54;;;;;;;29.75;6.50;;;9.60;99.90;;;;;;5133568;27;20028;-72
2023/12/22 08:27:19;;;;;;;30.98;7.18;;;9.70;99.90;;;;;;5134173;27;20038;-72
2023/12/22 08:29:45;;;;;;;28.23;6.05;;;9.70;99.90;;;;;;5131649;27;20043;-72
2023/12/22 08:32:11;;;;;;;30.17;7.05;;;9.70;99.90;;;;;;5128747;27;20088;-72
2023/12/22 08:34:36;;;;;;;28.08;6.18;;;9.80;99.90;;;;;;5128841;27;20023;-72
2023/12/22 08:37:02;;;;;;;32.20;7.00;;;9.80;99.90;;;;;;5115017;27;20030;-72
2023/12/22 08:39:29;;;;;;;27.48;5.75;;;9.80;99.90;;;;;;5134128;27;20019;-73
2023/12/22 08:42:05;;;;;;;22.73;4.78;;;9.90;99.90;;;;;;5133893;27;20074;-72
2023/12/22 08:44:32;;;;;;;22.35;4.75;;;9.90;99.90;;;;;;5132017;27;20029;-72
2023/12/22 08:47:05;;;;;;;13.65;3.58;;;9.90;99.90;;;;;;5133103;27;20031;-72
2023/12/22 08:49:31;;;;;;;14.90;3.70;;;9.80;99.90;;;;;;5131637;27;20031;-72
2023/12/22 08:51:56;;;;;;;38.15;7.82;;;9.70;99.90;;;;;;5127477;27;20098;-71
2023/12/22 08:54:22;;;;;;;29.67;5.45;;;9.60;99.90;;;;;;5131771;27;20023;-71
2023/12/22 08:56:47;;;;;;;31.75;5.72;;;9.60;99.90;;;;;;5132431;27;20031;-72
2023/12/22 08:59:13;;;;;;;36.22;7.60;;;9.50;99.90;;;;;;5131519;27;20099;-71
2023/12/22 09:01:40;;;;;;;29.50;8.18;;;9.50;99.90;;;;;;5133289;27;20041;-71
2023/12/22 09:04:06;;;;;;;30.55;6.47;;;9.50;99.90;;;;;;5130713;27;20027;-71
2023/12/22 09:06:32;;;;;;;31.60;7.10;;;9.60;99.90;;;;;;5132055;27;20050;-71
2023/12/22 09:08:57;;;;;;;27.85;5.90;;;9.60;99.90;;;;;;5133302;27;20041;-71
2023/12/22 09:11:23;;;;;;;25.70;6.25;;;9.70;99.90;;;;;;5133236;27;20068;-71
2023/12/22 09:13:49;;;;;;;25.90;5.40;;;9.70;99.90;;;;;;5131318;27;20031;-71
2023/12/22 09:16:21;;;;;;;26.23;5.63;;;9.80;99.90;;;;;;5132890;27;20027;-72
2023/12/22 09:18:46;;;;;;;22.27;5.07;;;9.80;99.90;;;;;;5130263;27;20106;-71
2023/12/22 09:21:12;;;;;;;26.33;5.90;;;9.80;99.90;;;;;;5127353;27;20212;-72
2023/12/22 09:23:37;;;;;;;22.73;4.85;;;9.90;99.90;;;;;;5127621;27;20058;-72
2023/12/22 09:26:04;;;;;;;30.38;4.65;;;9.90;99.90;;;;;;5130185;27;20015;-72
2023/12/22 09:28:30;;;;;;;23.60;5.20;;;10.00;99.90;;;;;;5132909;27;20548;-72
2023/12/22 09:30:56;;;;;;;21.55;5.00;;;10.10;99.90;;;;;;5132436;27;20043;-72
2023/12/22 09:33:22;;;;;;;26.92;6.70;;;10.20;99.90;;;;;;5132329;27;20037;-72
2023/12/22 09:35:48;;;;;;;25.48;6.68;;;10.20;99.90;;;;;;5132793;27;20084;-72
2023/12/22 09:38:14;;;;;;;22.42;4.70;;;10.20;99.90;;;;;;5132820;27;20027;-72
2023/12/22 09:40:39;;;;;;;30.63;7.53;;;10.30;99.90;;;;;;5132942;27;20031;-72
2023/12/22 09:43:07;;;;;;;16.98;3.83;;;10.30;99.90;;;;;;5131977;27;20023;-72
2023/12/22 09:45:33;;;;;;;22.63;4.22;;;10.40;99.90;;;;;;5128085;27;20050;-72
2023/12/22 09:48:00;;;;;;;21.20;4.93;;;10.50;99.90;;;;;;5132697;27;20072;-72
2023/12/22 09:50:29;;;;;;;21.45;4.90;;;10.50;99.90;;;;;;5133310;27;20129;-72
2023/12/22 09:52:55;;;;;;;21.17;4.68;;;10.60;99.90;;;;;;5127859;27;20023;-72
2023/12/22 09:55:25;;;;;;;24.38;5.43;;;10.60;99.90;;;;;;5112400;27;20076;-72
2023/12/22 09:57:52;;;;;;;24.67;4.63;;;10.60;99.90;;;;;;5130074;27;20359;-72
2023/12/22 10:00:18;;;;;;;25.80;5.88;;;10.70;99.90;;;;;;5132807;27;20061;-72
2023/12/22 10:02:49;;;;;;;22.67;5.25;;;10.70;99.90;;;;;;5128701;28;20034;-73
2023/12/22 10:05:15;;;;;;;26.70;4.95;;;10.80;99.90;;;;;;5132666;28;20106;-72
2023/12/22 10:07:45;;;;;;;28.75;8.45;;;10.80;99.90;;;;;;5130613;28;20144;-72
2023/12/22 10:10:12;;;;;;;29.45;8.15;;;10.80;99.90;;;;;;5114211;28;20557;-72
2023/12/22 10:12:39;;;;;;;26.17;5.13;;;10.70;99.90;;;;;;5133061;28;20058;-72
2023/12/22 10:15:07;;;;;;;30.25;7.50;;;10.70;99.90;;;;;;5133360;28;20047;-72
2023/12/22 10:17:33;;;;;;;25.73;5.40;;;10.80;99.90;;;;;;5132891;28;20034;-72
2023/12/22 10:19:59;;;;;;;27.67;6.20;;;10.90;99.90;;;;;;5132840;28;20031;-72
2023/12/22 10:22:24;;;;;;;35.30;6.88;;;10.90;99.90;;;;;;5133754;27;20030;-72
2023/12/22 10:24:53;;;;;;;22.23;5.90;;;10.90;99.90;;;;;;5137044;27;20015;-72
2023/12/22 10:27:22;;;;;;;26.70;4.38;;;11.00;99.90;;;;;;5133764;27;20031;-72
2023/12/22 10:29:56;;;;;;;24.40;4.68;;;11.00;99.90;;;;;;5136488;27;20035;-72
2023/12/22 10:32:22;;;;;;;27.42;5.25;;;11.10;99.90;;;;;;5134332;27;20507;-72
2023/12/22 10:34:52;;;;;;;25.17;4.95;;;11.20;99.90;;;;;;5135760;27;20023;-72
2023/12/22 10:37:18;;;;;;;22.88;4.60;;;11.20;99.90;;;;;;5136251;27;20032;-72
2023/12/22 10:39:48;;;;;;;23.30;4.68;;;11.30;99.90;;;;;;5136424;27;20376;-72
2023/12/22 10:42:14;;;;;;;27.08;4.60;;;11.30;99.90;;;;;;5137057;27;20042;-72
2023/12/22 10:44:41;;;;;;;21.48;4.20;;;11.40;99.90;;;;;;5136914;27;20465;-72
2023/12/22 10:47:07;;;;;;;21.95;4.47;;;11.40;99.90;;;;;;5136098;27;20115;-72
2023/12/22 10:49:33;;;;;;;24.52;5.32;;;11.40;99.90;;;;;;5117802;27;20066;-72
2023/12/22 10:51:59;;;;;;;21.27;4.85;;;11.30;99.90;;;;;;5134568;27;20027;-73
2023/12/22 10:54:25;;;;;;;20.85;4.85;;;11.30;99.90;;;;;;5136480;27;20027;-72
2023/12/22 10:56:52;;;;;;;20.35;3.65;;;11.30;99.90;;;;;;5136387;27;20031;-72
2023/12/22 10:59:23;;;;;;;20.02;4.53;;;11.30;99.90;;;;;;5135963;27;20065;-72
2023/12/22 11:01:51;;;;;;;20.70;4.72;;;11.40;99.90;;;;;;5134853;27;20023;-72
2023/12/22 11:04:20;;;;;;;18.70;3.63;;;11.40;99.90;;;;;;5136224;27;20460;-72
2023/12/22 11:06:48;;;;;;;21.80;4.60;;;11.40;99.90;;;;;;5135752;27;20031;-72
2023/12/22 11:09:17;;;;;;;19.75;5.05;;;11.40;99.90;;;;;;5136787;27;20038;-73
2023/12/22 11:11:42;;;;;;;20.63;4.43;;;11.40;99.90;;;;;;5136377;27;20039;-72
2023/12/22 11:14:09;;;;;;;28.33;4.57;;;11.40;99.90;;;;;;5136891;27;20452;-72
2023/12/22 11:16:35;;;;;;;20.85;4.18;;;11.40;99.90;;;;;;5136405;27;20088;-72
2023/12/22 11:19:03;;;;;;;23.05;4.35;;;11.50;99.90;;;;;;5136665;27;20027;-72
2023/12/22 11:21:30;;;;;;;21.80;4.72;;;11.50;99.90;;;;;;5136096;27;20055;-72
2023/12/22 11:23:57;;;;;;;26.17;4.55;;;11.50;99.90;;;;;;5136560;27;20076;-72
2023/12/22 11:26:24;;;;;;;24.23;4.50;;;11.50;99.90;;;;;;5136051;27;20110;-72
2023/12/22 11:28:51;;;;;;;23.63;5.18;;;11.60;99.90;;;;;;5136228;27;20035;-72
2023/12/22 11:31:18;;;;;;;20.83;4.45;;;11.60;99.90;;;;;;5136026;27;20375;-72
2023/12/22 11:33:45;;;;;;;25.30;4.47;;;11.60;99.90;;;;;;5135456;27;20023;-72
2023/12/22 11:36:15;;;;;;;24.02;4.82;;;11.60;99.90;;;;;;5135741;27;20031;-72
2023/12/22 11:38:41;;;;;;;23.13;4.53;;;11.60;99.90;;;;;;5136287;27;20062;-72
2023/12/22 11:41:11;;;;;;;20.85;4.15;;;11.60;99.90;;;;;;5135984;27;20038;-72
2023/12/22 11:43:39;;;;;;;17.67;3.40;;;11.60;99.90;;;;;;5136190;27;20030;-72
2023/12/22 11:46:05;;;;;;;22.20;4.72;;;11.60;99.90;;;;;;5135586;27;20472;-72
2023/12/22 11:48:31;;;;;;;18.67;3.92;;;11.70;99.90;;;;;;5135963;27;20043;-72
2023/12/22 11:50:57;;;;;;;17.13;4.05;;;11.80;99.90;;;;;;5135563;27;20365;-72
2023/12/22 11:53:24;;;;;;;25.65;4.15;;;11.80;99.90;;;;;;5136106;27;20083;-73
2023/12/22 11:56:01;;;;;;;21.55;4.55;;;11.80;99.90;;;;;;5135476;27;20114;-72
2023/12/22 11:58:52;;;;;;;20.70;4.57;;;11.80;99.90;;;;;;5135498;27;20050;-73
2023/12/22 12:01:19;;;;;;;17.83;4.13;;;11.90;99.90;;;;;;5117442;27;20349;-72
2023/12/22 12:03:49;;;;;;;20.85;4.20;;;11.90;99.90;;;;;;5135342;27;20373;-73
2023/12/22 12:06:21;;;;;;;22.17;5.50;;;12.00;99.90;;;;;;5135294;27;20038;-72
2023/12/22 12:08:48;;;;;;;;;;;12.20;99.90;;;;;;5135850;27;20050;-73
2023/12/22 12:11:14;;;;;;;22.02;4.57;;;12.40;99.90;;;;;;5135518;27;19926;-73
2023/12/22 12:13:44;;;;;;;24.67;4.88;;;12.40;99.90;;;;;;5135270;27;20467;-72
2023/12/22 12:16:14;;;;;;;21.45;4.28;;;12.50;99.90;;;;;;5135490;27;20593;-73
2023/12/22 12:18:41;;;;;;;20.73;4.13;;;12.50;99.90;;;;;;5135796;27;20105;-72
2023/12/22 12:21:08;;;;;;;27.88;4.28;;;12.50;99.90;;;;;;5135219;27;20460;-72
2023/12/22 12:23:33;;;;;;;27.45;4.68;;;12.40;99.90;;;;;;5135196;27;20023;-72
2023/12/22 12:25:59;;;;;;;21.48;4.57;;;12.30;99.90;;;;;;5134223;27;20472;-72
2023/12/22 12:28:26;;;;;;;21.48;4.55;;;12.30;99.90;;;;;;5134497;27;20019;-72
2023/12/22 12:30:59;;;;;;;23.60;5.47;;;12.20;99.90;;;;;;5134316;27;20038;-72
2023/12/22 12:33:26;;;;;;;28.17;4.47;;;12.20;99.90;;;;;;5134698;27;20037;-72
2023/12/22 12:35:54;;;;;;;26.38;5.30;;;12.20;99.90;;;;;;5134357;27;20061;-72
2023/12/22 12:38:32;;;;;;;22.42;4.90;;;12.20;99.90;;;;;;5131093;27;20027;-72
2023/12/22 12:40:58;;;;;;;23.23;4.93;;;12.10;99.90;;;;;;5132634;27;20039;-72